Latest Weather Observations for Gunnedah Airport

IDN60801

Issued at 11:02 am EST Saturday 5 September 2015 (issued every 30 minutes, with the page automatically refreshed every 10 minutes)

About weather observations | Map of weather stations | Latest weather observations for NSW | Other Formats
Station Details ID: 055202 Name: GUNNEDAH AIRPORT AWS Lat: -30.95 Lon: 150.25 Height: 262.57 m
Data from the previous 72 hours. | See also: Recent months at Gunnedah Airport
Date/Time
EST
Temp
°C
App
Temp
°C
Dew
Point
Rel
Hum
%
Delta-T
°C
Wind Press
QNH
hPa
Press
MSL
hPa
Rain
since 9 am
mm
Dir
 
Spd
km/h
Gust
km/h
Spd
kts
Gust
kts
05/11:00am 16.9 16.0 10.5 66 3.4 N 6 11 3 6 1021.9 1021.7 -
05/10:30am 16.4 16.8 11.1 71 2.9 CALM 0 4 0 2 1022.5 1022.2 0.0
05/10:00am 14.7 13.6 9.9 73 2.5 E 6 11 3 6 1022.7 1022.4 0.0
05/09:30am 13.6 11.7 10.4 81 1.7 ESE 11 15 6 8 1022.8 1022.5 0.0
05/09:00am 11.9 9.4 9.6 86 1.2 SE 13 15 7 8 1022.8 1022.5 0.2
05/08:30am 10.8 8.5 9.1 89 0.9 SE 11 13 6 7 1022.8 1022.5 0.2
05/08:00am 9.9 8.0 9.1 95 0.4 ESE 9 13 5 7 1022.8 1022.5 0.2
05/07:30am 8.8 7.0 8.0 95 0.4 SE 7 11 4 6 1022.5 1022.2 0.2
05/07:00am 6.4 4.3 5.7 95 0.3 SE 6 9 3 5 1022.3 1022.0 0.2
05/06:30am 6.1 3.7 5.4 95 0.3 SE 7 7 4 4 1021.8 1021.6 0.2
05/06:00am 4.9 2.3 4.2 95 0.3 SE 7 11 4 6 1021.3 1021.1 0.2
05/05:30am 5.7 3.4 5.0 95 0.3 SE 6 9 3 5 1021.1 1020.9 0.2
05/05:00am 5.7 3.2 5.0 95 0.3 SE 7 9 4 5 1020.9 1020.7 0.2
05/04:30am 6.2 3.1 5.5 95 0.3 E 11 13 6 7 1020.7 1020.4 0.2
05/04:00am 5.2 3.9 4.3 94 0.4 CALM 0 0 0 0 1020.6 1020.3 0.2
05/03:30am 5.6 4.4 4.7 94 0.4 CALM 0 0 0 0 1020.4 1020.1 0.2
05/03:00am 6.4 5.4 5.5 94 0.4 CALM 0 0 0 0 1020.3 1020.0 0.2
05/02:30am 6.6 5.6 5.7 94 0.4 CALM 0 0 0 0 1020.5 1020.2 0.2
05/02:00am 6.4 5.4 5.5 94 0.4 CALM 0 0 0 0 1020.9 1020.7 0.2
05/01:30am 7.0 6.1 6.1 94 0.4 CALM 0 0 0 0 1021.1 1020.9 0.2
05/01:00am 6.6 4.5 5.7 94 0.4 SE 6 9 3 5 1021.1 1020.9 0.2
05/12:30am 5.7 3.8 4.7 93 0.4 ESE 4 7 2 4 1021.2 1021.0 0.2
05/12:00am 6.5 3.4 5.5 93 0.4 NE 11 13 6 7 1021.4 1021.2 0.2
 
Date/Time
EST
Temp
°C
App
Temp
°C
Dew
Point
Rel
Hum
%
Delta-T
°C
Wind Press
QNH
hPa
Press
MSL
hPa
Rain
since 9 am
mm
Dir
 
Spd
km/h
Gust
km/h
Spd
kts
Gust
kts
04/11:30pm 7.2 5.8 5.7 90 0.7 S 2 7 1 4 1021.5 1021.3 0.2
04/11:00pm 8.0 6.1 6.5 90 0.7 SSE 6 7 3 4 1021.6 1021.4 0.2
04/10:30pm 8.3 4.9 5.9 85 1.1 SE 13 13 7 7 1021.6 1021.4 0.2
04/10:00pm 8.9 6.6 7.4 90 0.7 ESE 9 11 5 6 1021.7 1021.5 0.2
04/09:30pm 11.0 8.5 8.2 83 1.4 SSE 11 13 6 7 1021.5 1021.3 0.2
04/09:00pm 11.5 9.6 8.9 84 1.3 SE 9 11 5 6 1021.4 1021.2 0.2
04/08:30pm 11.3 9.0 9.0 86 1.2 SE 11 13 6 7 1021.4 1021.2 0.2
04/08:00pm 11.5 9.2 8.9 84 1.3 SE 11 15 6 8 1021.3 1021.1 0.2
04/07:30pm 12.5 9.5 9.3 81 1.6 SSE 15 20 8 11 1021.1 1020.9 0.2
04/07:00pm 12.8 9.1 9.6 81 1.6 SSE 19 22 10 12 1020.9 1020.7 0.2
04/06:30pm 12.8 9.9 9.6 81 1.7 SSE 15 20 8 11 1020.7 1020.4 0.2
04/06:00pm 13.2 10.6 9.3 77 2.0 SE 13 17 7 9 1020.5 1020.2 0.2
04/05:30pm 15.1 11.7 9.2 68 3.1 SSE 17 20 9 11 1020.2 1019.9 0.2
04/05:00pm 16.6 12.7 9.5 63 3.7 S 20 26 11 14 1020.1 1019.8 0.2
04/04:30pm 17.5 14.2 9.7 60 4.2 SSE 17 26 9 14 1020.0 1019.7 0.2
04/04:00pm 17.9 14.2 10.0 60 4.2 SSE 20 24 11 13 1019.8 1019.5 0.2
04/03:30pm 18.7 16.1 9.2 54 5.0 S 13 20 7 11 1019.6 1019.3 0.2
04/03:00pm 18.7 15.4 8.1 50 5.5 SSE 15 20 8 11 1019.6 1019.3 0.2
04/02:30pm 18.5 15.9 7.6 49 5.6 ESE 11 19 6 10 1019.7 1019.4 0.2
04/02:00pm 18.6 15.8 8.6 52 5.2 SSE 13 19 7 10 1019.9 1019.6 0.2
04/01:30pm 18.2 15.4 8.5 53 5.1 SE 13 20 7 11 1020.1 1019.8 0.2
04/01:00pm 17.4 13.8 8.3 55 4.7 SSE 17 22 9 12 1020.4 1020.1 0.2
04/12:30pm 17.7 14.4 9.6 59 4.3 E 17 26 9 14 1020.5 1020.2 0.2
04/12:00pm 17.1 14.2 9.8 62 3.9 SE 15 26 8 14 1020.8 1020.6 0.2
04/11:30am 16.2 12.2 8.4 60 4.0 E 19 24 10 13 1021.4 1021.2 0.2
04/11:00am 15.5 14.2 9.8 69 3.0 ESE 7 15 4 8 1021.8 1021.6 0.0
04/10:30am 14.8 13.3 8.5 66 3.2 NE 6 11 3 6 1021.8 1021.6 0.0
04/10:00am 14.2 13.9 8.8 70 2.8 CALM 0 0 0 0 1021.7 1021.5 0.0
04/09:30am 13.3 11.8 9.0 75 2.2 N 7 13 4 7 1021.7 1021.5 0.0
04/09:00am 12.0 10.4 8.8 81 1.6 NW 7 9 4 5 1021.6 1021.4 2.4
04/08:30am 10.7 10.4 8.5 86 1.1 CALM 0 0 0 0 1021.5 1021.3 2.4
04/08:00am 9.8 9.5 8.6 92 0.6 CALM 0 0 0 0 1021.1 1020.9 2.4
04/07:30am 8.0 7.4 7.2 95 0.4 CALM 0 0 0 0 1020.9 1020.7 2.4
04/07:00am 7.0 5.0 6.3 95 0.3 W 6 11 3 6 1020.5 1020.2 2.4
04/06:30am 5.4 4.2 4.4 93 0.4 CALM 0 0 0 0 1020.0 1019.7 2.4
04/06:00am 6.4 5.4 5.4 93 0.4 CALM 0 0 0 0 1019.2 1018.9 2.4
04/05:30am 6.6 5.6 5.6 93 0.5 CALM 0 0 0 0 1019.0 1018.7 2.4
04/05:00am 7.5 5.0 6.4 93 0.5 N 9 13 5 7 1018.8 1018.5 2.4
04/04:30am 7.7 5.2 6.6 93 0.5 NE 9 13 5 7 1018.5 1018.2 2.4
04/04:00am 7.6 5.1 6.5 93 0.5 NNE 9 11 5 6 1018.0 1017.8 2.4
04/03:30am 7.3 4.8 6.4 94 0.4 W 9 13 5 7 1018.0 1017.8 2.4
04/03:00am 5.6 2.7 4.7 94 0.4 NW 9 11 5 6 1017.9 1017.7 2.4
04/02:30am 5.4 2.5 4.5 94 0.4 WSW 9 13 5 7 1017.7 1017.5 2.4
04/02:00am 5.7 2.4 4.8 94 0.4 WNW 11 13 6 7 1017.8 1017.6 2.4
04/01:30am 5.1 2.4 3.8 91 0.6 WSW 7 9 4 5 1018.4 1018.1 2.4
04/01:00am 6.7 3.5 4.9 88 0.8 NW 11 15 6 8 1018.4 1018.1 2.4
04/12:30am 7.0 4.3 5.6 91 0.6 NW 9 13 5 7 1018.1 1017.9 2.4
04/12:00am 8.5 5.8 7.3 92 0.6 NW 11 15 6 8 1017.7 1017.5 2.4
 
Date/Time
EST
Temp
°C
App
Temp
°C
Dew
Point
Rel
Hum
%
Delta-T
°C
Wind Press
QNH
hPa
Press
MSL
hPa
Rain
since 9 am
mm
Dir
 
Spd
km/h
Gust
km/h
Spd
kts
Gust
kts
03/11:30pm 6.3 4.8 4.9 91 0.6 SW 2 9 1 5 1017.7 1017.5 2.4
03/11:00pm 6.4 4.1 4.7 89 0.7 W 6 9 3 5 1017.6 1017.4 2.2
03/10:30pm 7.2 4.5 5.8 91 0.6 ENE 9 15 5 8 1017.6 1017.4 2.2
03/10:00pm 8.9 6.1 7.0 88 0.9 NW 11 13 6 7 1017.3 1017.0 2.2
03/09:30pm 9.1 6.8 7.4 89 0.8 WNW 9 11 5 6 1017.1 1016.8 2.2
03/09:00pm 9.0 7.2 7.3 89 0.8 NW 6 9 3 5 1017.0 1016.7 2.2
03/08:30pm 9.8 6.7 7.4 85 1.2 W 13 15 7 8 1016.6 1016.3 2.2
03/08:00pm 10.4 7.4 7.8 84 1.3 WNW 13 15 7 8 1016.3 1016.0 2.2
03/07:30pm 10.9 9.4 8.5 85 1.2 W 6 9 3 5 1015.6 1015.3 2.2
03/07:00pm 11.5 8.0 8.9 84 1.3 SW 17 20 9 11 1015.5 1015.2 2.0
03/06:30pm 12.3 9.8 8.2 76 2.0 WNW 11 17 6 9 1014.5 1014.2 1.6
03/06:00pm 12.4 10.3 8.1 75 2.1 WNW 9 15 5 8 1013.6 1013.3 1.6
03/05:30pm 13.0 9.2 7.7 70 2.6 WNW 17 24 9 13 1013.0 1012.7 1.6
03/05:00pm 13.4 10.1 8.0 70 2.7 WNW 15 20 8 11 1012.3 1012.0 1.6
03/04:30pm 13.6 10.3 8.2 70 2.7 WNW 15 20 8 11 1011.7 1011.4 1.6
03/04:00pm 14.4 9.4 7.9 65 3.3 W 24 33 13 18 1011.4 1011.1 1.6
03/03:30pm 14.3 9.5 7.4 63 3.4 W 22 32 12 17 1011.2 1010.9 1.6
03/03:00pm 14.2 9.0 7.3 63 3.4 WNW 24 33 13 18 1010.8 1010.4 1.6
03/02:30pm 13.2 8.5 7.9 70 2.6 W 22 41 12 22 1010.6 1010.2 1.6
03/02:00pm 13.9 9.1 8.9 72 2.6 NW 24 33 13 18 1010.3 1009.9 1.4
03/01:30pm 13.2 9.5 10.2 82 1.6 NW 20 30 11 16 1010.5 1010.1 1.4
03/01:00pm 12.3 8.1 8.4 77 2.0 WNW 20 28 11 15 1010.8 1010.4 1.4
03/12:30pm 11.6 8.4 8.3 80 1.6 NW 15 22 8 12 1011.0 1010.7 1.4
03/12:00pm 10.8 6.7 8.6 86 1.1 WNW 20 30 11 16 1011.2 1010.9 1.4
03/11:30am 10.3 4.1 7.7 84 1.3 WNW 30 46 16 25 1011.3 1011.0 0.6
03/11:04am 12.2 5.8 6.9 70 2.6 NW 30 65 16 35 1011.1 1010.8 0.0
03/11:00am 13.9 8.2 6.7 62 3.5 NW 26 39 14 21 1010.9 1010.5 0.0
03/10:30am 16.2 10.9 6.6 53 4.8 NW 24 33 13 18 1010.4 1010.0 0.0
03/10:00am 14.7 10.1 6.3 57 4.1 NNW 20 32 11 17 1010.5 1010.1 0.0
03/09:30am 15.1 11.0 8.6 65 3.3 NW 20 28 11 15 1011.1 1010.8 0.0
03/09:00am 14.3 10.8 8.9 70 2.8 NW 17 24 9 13 1011.0 1010.7 18.0
03/08:30am 13.2 10.8 8.7 74 2.3 NW 11 24 6 13 1010.6 1010.2 18.0
03/08:00am 10.9 10.5 8.1 83 1.4 CALM 0 0 0 0 1010.6 1010.2 18.0
03/07:30am 8.4 7.4 7.5 94 0.4 W 2 6 1 3 1010.3 1009.9 18.0
03/07:00am 6.7 4.0 5.8 94 0.4 W 9 9 5 5 1009.7 1009.4 18.0
03/06:30am 7.0 4.7 5.9 93 0.5 W 7 11 4 6 1009.4 1009.1 18.0
03/06:00am 7.4 5.6 5.5 88 0.9 NW 4 7 2 4 1009.1 1008.8 18.0
03/05:30am 9.1 7.1 7.1 87 1.0 NNW 7 9 4 5 1008.6 1008.3 18.0
03/05:00am 10.2 7.9 7.4 83 1.4 NW 9 13 5 7 1008.5 1008.2 18.0
03/04:30am 10.8 8.6 9.2 90 0.8 N 11 13 6 7 1008.5 1008.2 18.0
03/04:00am 12.0 10.5 10.4 90 0.8 NNW 9 13 5 7 1008.3 1008.0 18.0
03/03:30am 12.4 10.6 11.0 91 0.7 NW 11 17 6 9 1008.0 1007.7 18.0
03/03:00am 12.8 11.6 11.7 93 0.6 NW 9 15 5 8 1007.9 1007.6 18.0
03/02:30am 12.8 10.8 11.5 92 0.7 NW 13 20 7 11 1007.5 1007.1 17.8
03/02:00am 12.6 8.8 11.2 91 0.7 WSW 22 39 12 21 1008.8 1008.5 9.8
03/01:30am 12.4 10.6 11.0 91 0.7 ESE 11 13 6 7 1007.7 1007.3 2.4
03/01:00am 12.3 11.2 10.5 89 0.9 NE 7 13 4 7 1008.5 1008.2 2.4
03/12:30am 13.3 10.0 11.0 86 1.2 WSW 19 26 10 14 1009.6 1009.3 2.4
03/12:14am 13.8 8.7 10.6 81 1.7 WSW 28 39 15 21 1010.3 1009.9 1.0
03/12:00am 13.6 10.9 10.4 81 1.7 SW 15 20 8 11 1009.3 1009.0 0.6
 
Date/Time
EST
Temp
°C
App
Temp
°C
Dew
Point
Rel
Hum
%
Delta-T
°C
Wind Press
QNH
hPa
Press
MSL
hPa
Rain
since 9 am
mm
Dir
 
Spd
km/h
Gust
km/h
Spd
kts
Gust
kts
02/11:30pm 14.5 10.4 10.1 75 2.3 WSW 22 35 12 19 1009.2 1008.9 0.4
02/11:00pm 14.5 12.7 9.3 71 2.7 S 9 11 5 6 1008.5 1008.2 0.0
02/10:30pm 16.3 13.6 7.5 56 4.5 NNE 11 19 6 10 1008.3 1008.0 0.0
02/10:00pm 15.0 13.2 7.3 60 3.9 NE 6 11 3 6 1008.8 1008.5 0.0
02/09:30pm 15.5 12.1 7.5 59 4.0 NE 15 17 8 9 1009.4 1009.1 0.0
02/09:00pm 15.1 13.6 6.7 57 4.2 NW 4 7 2 4 1009.8 1009.5 0.0
02/08:30pm 14.9 13.0 6.7 58 4.0 ENE 6 9 3 5 1009.7 1009.4 0.0
02/08:00pm 15.2 12.5 7.2 59 4.0 NE 11 13 6 7 1010.0 1009.7 0.0
02/07:30pm 13.2 10.6 7.6 69 2.8 NNE 11 13 6 7 1010.9 1010.5 0.0
02/07:00pm 12.5 11.8 6.8 68 2.8 CALM 0 0 0 0 1011.2 1010.9 0.0
02/06:30pm 13.9 13.3 7.4 65 3.2 CALM 0 0 0 0 1011.4 1011.1 0.0
02/06:00pm 15.9 15.2 7.1 56 4.4 CALM 0 0 0 0 1011.7 1011.4 0.0
02/05:30pm 17.0 16.2 8.2 56 4.5 ESE 2 6 1 3 1011.6 1011.3 0.0
02/05:00pm 17.8 14.9 6.3 47 5.8 ESE 11 13 6 7 1011.2 1010.9 0.0
02/04:30pm 18.2 15.4 8.5 53 5.1 E 13 13 7 7 1011.3 1011.0 0.0
02/04:00pm 20.0 18.7 4.1 35 7.7 CALM 0 2 0 1 1012.1 1011.8 0.0
02/03:30pm 20.1 18.7 5.7 39 7.2 SE 2 9 1 5 1012.1 1011.8 0.0
02/03:00pm 20.4 17.8 4.0 34 8.0 ENE 7 11 4 6 1012.5 1012.2 0.0
02/02:30pm 20.7 18.3 5.1 36 7.8 ESE 7 13 4 7 1012.8 1012.5 0.0
02/02:00pm 20.0 17.2 5.3 38 7.3 E 9 15 5 8 1013.5 1013.2 0.0
02/01:30pm 19.0 15.8 5.1 40 6.8 ESE 11 15 6 8 1014.0 1013.7 0.0
02/01:00pm 19.0 16.3 5.5 41 6.7 ESE 9 17 5 9 1014.6 1014.3 0.0
02/12:30pm 18.4 16.1 5.6 43 6.3 E 7 13 4 7 1015.5 1015.2 0.0
02/12:00pm 17.8 15.8 6.3 47 5.7 ENE 6 11 3 6 1016.4 1016.1 0.0
02/11:30am 16.6 14.0 6.1 50 5.2 SE 9 15 5 8 1017.0 1016.7 0.0

Other Formats:

Comma delimited format used in spreadsheet applications
http://www.bom.gov.au/fwo/IDN60801/IDN60801.95740.axf

JavaScript Object Notation format (JSON) in row-major order
http://www.bom.gov.au/fwo/IDN60801/IDN60801.95740.json